Share

Harvey, ND (58341)

Harvey (K5H4) Elev 1608 ft | 47.79 °N, 99.93 °W | Change Station

Current weather conditions updated 18 minutes ago

Clear
Clear
36 °F
Feels Like 28 °F
N
12
Wind Variable Wind from South
Sunrise 6:46 AM
Sunset 8:32 PM
Moon Waning Gibbous

Today is forecast to be Much Warmer than yesterday.

Pressure 30.29 in
Visibility 10.0 miles
Clouds Clear
Windchill 28 °F
Dew Point 12 °F
Humidity 38%
Rainfall 0.00 in
Snow Depth Not available.
UV 8 out of 16
Pollen 7.40 out of 12
Air Quality Not available.
Flu Activity Sporadic
METAR K5H4 171735Z AUTO 18010KT 10SM CLR 02/M11 A3029 RMK AO2

More Conditions Fewer Conditions

Pressure 30.29 in
Visibility 10.0 miles
Clouds Clear
Windchill 28 °F
Dew Point 12 °F
Humidity 38%
Rainfall 0.00 in
Snow Depth Not available.
UV 8 out of 16
Pollen 7.40 out of 12
Air Quality Not available.
Flu Activity Sporadic
METAR K5H4 171735Z AUTO 18010KT 10SM CLR 02/M11 A3029 RMK AO2

More Conditions Fewer Conditions

10-Day Forecast

Almanac

Astronomy

Apr. 17, 2014 Rise Set
Actual Time 6:46 AM CDT 8:32 PM CDT
Civil Twilight 6:14 AM CDT 9:05 PM CDT
Nautical Twilight 5:34 AM CDT 9:45 PM CDT
Astronomical Twilight 4:50 AM CDT 10:29 PM CDT
Moon 11:29 PM CDT 8:12 AM CDT
Length of Visible Light 14h 51m
Length of Day
13h 45m
Tomorrow will be 3m 18s longer.
Waning Gibbous, 93% of the Moon is Illuminated
Today
Waning Gibbous
Apr 22
Last Quarter
Apr 29
New
May 6
First Quarter
May 14
Full

Today's Extremes

State Highs State Lows

Community

  • New Day
    New Day
  • Lake Michigan Sunrise
    Lake Michigan Sunrise
  • sunset from izmir, narlıdere
    sunset from izmir, narlıdere
  • oregon cherry
    oregon cherry
  • Sunset over the Bay
    Sunset over the Bay

WunderPhotos

Upload Photos

1,702,075 photos uploaded!

Nearby

Snow Depth

Station Depth Elevation
No new snow has been reported.

Coastal Water Temperatures

Place Temperature
No Stations Reporting

Earthquake Activity

City Distance Mag. Time & Date
No recent earthquake activity has been reported nearby.
Minimum magnitude displayed is 2.5.

Nearby Weather Stations

There are no personal weather stations in this area.

What do you think?

We're not finished. Please let us know what you like, what you don't like, and what you are still missing.